Data for 03/15/2005

Time Sea-Level Adjusted Pressure Absolute Pressure Temperature Relative Humidity Dew Point   
(mb) (inHg) (mb) (inHg) (C) (F) (%) (C) (F)
00:05 1017 30.03 846 24.98 -5.3 22.5 89 -6.8 19.8
00:10 1017 30.03 846 24.98 -5.5 22 91 -6.9 19.7
00:15 1017 30.03 846 24.98 -5.9 21.3 90 -7.4 18.7
00:20 1017 30.03 846 24.98 -6.2 20.9 89 -7.6 18.3
00:25 1017 30.03 846 24.98 -6.2 20.9 89 -7.7 18.2
00:30 1017 30.03 846 24.98 -6.1 21 90 -7.5 18.5
00:35 1017 30.03 846 24.98 -6 21.3 90 -7.3 18.8
00:40 1017 30.03 846 24.98 -5.8 21.6 90 -7.2 19.1
00:45 1017 30.03 846 24.98 -5.6 21.9 89 -7.2 19.1
00:50 1017 30.03 846 24.98 -5.7 21.7 88 -7.3 18.8
00:55 1017 30.03 846 24.98 -5.9 21.4 88 -7.6 18.2
01:00 1017 30.03 846 24.98 -5.9 21.3 88 -7.7 18.2
01:05 1017 30.03 846 24.98 -5.8 21.6 88 -7.4 18.7
01:10 1017 30.03 846 24.98 -5.6 22 88 -7.2 19.1
01:15 1017 30.03 846 24.98 -5.4 22.3 88 -7 19.3
01:20 1017 30.03 846 24.98 -5.2 22.6 88 -6.9 19.5
01:25 1017 30.03 846 24.98 -5.1 22.7 90 -6.6 20.1
01:30 1017 30.03 846 24.98 -5.2 22.6 91 -6.4 20.5
01:35 1016 30 846 24.98 -5.3 22.5 93 -6.3 20.7
01:40 1016 30 846 24.98 -5.5 22.1 93 -6.4 20.5
01:45 1016 30 845 24.95 -5.6 21.9 94 -6.4 20.4
01:50 1016 30 845 24.95 -5.7 21.7 95 -6.4 20.4
01:55 1016 30 845 24.95 -5.6 21.8 95 -6.4 20.5
02:00 1016 30 845 24.95 -5.6 22 94 -6.4 20.5
02:05 1016 30 845 24.95 -5.4 22.2 93 -6.3 20.6
02:10 1016 30 845 24.95 -5.3 22.5 93 -6.3 20.7
02:15 1016 30 845 24.95 -5.2 22.7 92 -6.2 20.8
02:20 1016 30 845 24.95 -5.2 22.7 93 -6.2 20.9
02:25 1016 30 845 24.95 -5.2 22.6 93 -6.2 20.9
02:30 1016 30 845 24.95 -5.3 22.5 93 -6.2 20.9
02:35 1016 30 845 24.95 -5.4 22.4 94 -6.2 20.8
02:40 1016 30 845 24.95 -5.3 22.4 95 -6 21.1
02:45 1016 30 845 24.95 -5.3 22.5 95 -6 21.3
02:50 1016 30 845 24.95 -5.3 22.5 95 -5.9 21.3
02:55 1016 30 845 24.95 -5.3 22.5 95 -5.9 21.3
03:00 1016 30 845 24.95 -5.2 22.7 95 -5.8 21.5
03:05 1016 30 845 24.95 -5.1 22.8 95 -5.8 21.6
03:10 1015 29.97 845 24.95 -5.1 22.9 95 -5.8 21.6
03:15 1015 29.97 845 24.95 -5 23.1 95 -5.7 21.8
03:20 1015 29.97 845 24.95 -5 22.9 94 -5.9 21.4
03:25 1015 29.97 844 24.92 -5.1 22.9 94 -6 21.3
03:30 1015 29.97 844 24.92 -5 23 94 -5.9 21.4
03:35 1015 29.97 844 24.92 -5 23 93 -6 21.2
03:40 1015 29.97 844 24.92 -5 23 93 -6 21.2
03:45 1015 29.97 844 24.92 -5 23 92 -6.1 21
03:50 1015 29.97 844 24.92 -5 23 92 -6.1 21.1
03:55 1015 29.97 844 24.92 -5 23 91 -6.2 20.9
04:00 1015 29.97 844 24.92 -4.9 23.1 91 -6.2 20.8
04:05 1015 29.97 844 24.92 -4.9 23.2 91 -6.1 21
04:10 1015 29.97 844 24.92 -4.9 23.2 92 -6 21.1
04:15 1015 29.97 844 24.92 -4.9 23.1 92 -6 21.2
04:20 1015 29.97 844 24.92 -4.8 23.3 92 -5.9 21.3
04:25 1015 29.97 844 24.92 -4.7 23.5 92 -5.9 21.4
04:30 1015 29.97 844 24.92 -4.6 23.7 91 -5.9 21.4
04:35 1015 29.97 844 24.92 -4.7 23.6 91 -5.9 21.4
04:40 1015 29.97 844 24.92 -4.8 23.3 92 -6 21.2
04:45 1015 29.97 844 24.92 -4.8 23.4 91 -6 21.2
04:50 1015 29.97 844 24.92 -4.8 23.4 91 -6.1 21.1
04:55 1015 29.97 844 24.92 -4.7 23.6 90 -6 21.1
05:00 1015 29.97 844 24.92 -4.5 23.9 89 -6.1 21.1
05:05 1015 29.97 844 24.92 -4.4 24.1 87 -6.2 20.9
05:10 1015 29.97 844 24.92 -4.3 24.3 87 -6.1 21
05:15 1015 29.97 844 24.92 -4.4 24.1 88 -6.1 20.9
05:20 1015 29.97 844 24.92 -4.5 23.9 88 -6.2 20.8
05:25 1015 29.97 844 24.92 -4.6 23.8 88 -6.2 20.8
05:30 1015 29.97 844 24.92 -4.5 23.8 88 -6.3 20.7
05:35 1015 29.97 844 24.92 -4.6 23.8 87 -6.4 20.6
05:40 1015 29.97 844 24.92 -4.5 24 87 -6.3 20.6
05:45 1015 29.97 844 24.92 -4.4 24 87 -6.3 20.7
05:50 1015 29.97 844 24.92 -4.4 24.1 87 -6.3 20.7
05:55 1015 29.97 844 24.92 -4.5 24 86 -6.5 20.3
06:00 1015 29.97 844 24.92 -4.4 24.1 86 -6.4 20.5
06:05 1015 29.97 844 24.92 -4.2 24.4 84 -6.5 20.3
06:10 1015 29.97 844 24.92 -4.2 24.4 84 -6.5 20.3
06:15 1014 29.94 844 24.92 -4.3 24.2 85 -6.5 20.3
06:20 1015 29.97 844 24.92 -4.3 24.3 86 -6.3 20.6
06:25 1015 29.97 844 24.92 -4.3 24.3 85 -6.5 20.3
06:30 1015 29.97 844 24.92 -4.3 24.4 85 -6.4 20.5
06:35 1015 29.97 844 24.92 -4.2 24.5 84 -6.4 20.4
06:40 1015 29.97 844 24.92 -4.2 24.4 85 -6.5 20.4
06:45 1015 29.97 844 24.92 -4.2 24.5 84 -6.5 20.3
06:50 1015 29.97 844 24.92 -4.2 24.5 85 -6.4 20.5
06:55 1015 29.97 844 24.92 -4.2 24.4 85 -6.4 20.5
07:00 1015 29.97 844 24.92 -4.1 24.6 85 -6.3 20.7
07:05 1015 29.97 844 24.92 -4 24.9 85 -6.2 20.8
07:10 1015 29.97 844 24.92 -4 24.7 86 -6 21.2
07:15 1015 29.97 844 24.92 -4.1 24.6 89 -5.7 21.8
07:20 1015 29.97 844 24.92 -4.2 24.4 94 -5 23
07:25 1015 29.97 844 24.92 -4.5 23.8 96 -5.1 22.8
07:30 1015 29.97 844 24.92 -4.7 23.6 97 -5.1 22.9
07:35 1015 29.97 844 24.92 -4.6 23.7 97 -5 23
07:40 1015 29.97 844 24.92 -4.5 23.9 97 -4.9 23.2
07:45 1015 29.97 844 24.92 -4.3 24.2 96 -4.8 23.3
07:50 1015 29.97 844 24.92 -4.2 24.4 95 -4.8 23.3
07:55 1015 29.97 844 24.92 -3.9 24.9 94 -4.8 23.4
08:00 1015 29.97 844 24.92 -3.8 25.1 93 -4.9 23.3
08:05 1015 29.97 844 24.92 -3.8 25.2 91 -5 23
08:10 1015 29.97 844 24.92 -3.5 25.6 90 -4.9 23.1
08:15 1015 29.97 844 24.92 -3.3 26.1 88 -4.9 23.1
08:20 1015 29.97 844 24.92 -3.2 26.2 89 -4.8 23.4
08:25 1015 29.97 844 24.92 -3.2 26.3 89 -4.8 23.4
08:30 1015 29.97 844 24.92 -2.7 27.1 86 -4.7 23.5
08:35 1015 29.97 844 24.92 -2.4 27.8 85 -4.6 23.8
08:40 1015 29.97 844 24.92 -2.1 28.1 83 -4.6 23.6
08:45 1015 29.97 844 24.92 -2 28.4 85 -4.2 24.5
08:50 1015 29.97 844 24.92 -2.1 28.2 83 -4.6 23.7
08:55 1015 29.97 844 24.92 -1.5 29.4 80 -4.5 23.9
09:00 1015 29.97 844 24.92 -1.7 28.9 82 -4.5 23.9
09:05 1014 29.94 844 24.92 -2.1 28.3 83 -4.6 23.8
09:10 1014 29.94 844 24.92 -2.1 28.3 82 -4.7 23.5
09:15 1014 29.94 844 24.92 -1.3 29.6 78 -4.7 23.5
09:20 1014 29.94 844 24.92 -0.9 30.4 74 -4.9 23.2
09:25 1014 29.94 844 24.92 -0.4 31.3 73 -4.7 23.6
09:30 1014 29.94 844 24.92 -0.4 31.2 71 -5.1 22.8
09:35 1014 29.94 844 24.92 -0.2 31.7 68 -5.3 22.4
09:40 1014 29.94 844 24.92 0.4 32.7 67 -5 23.1
09:45 1014 29.94 844 24.92 0.6 33 67 -4.8 23.3
09:50 1014 29.94 844 24.92 0.5 33 66 -5.1 22.8
09:55 1014 29.94 844 24.92 0.6 33 67 -4.9 23.1
10:00 1014 29.94 843 24.89 0.4 32.7 67 -5.1 22.9
10:05 1014 29.94 843 24.89 0.4 32.7 66 -5.3 22.5
10:10 1014 29.94 843 24.89 0.3 32.6 63 -5.8 21.5
10:15 1014 29.94 843 24.89 0.5 32.9 62 -6 21.3
10:20 1014 29.94 843 24.89 0.7 33.2 61 -5.9 21.3
10:25 1014 29.94 843 24.89 0.8 33.5 60 -6 21.2
10:30 1014 29.94 843 24.89 0.7 33.2 61 -5.9 21.3
10:35 1014 29.94 843 24.89 0.9 33.6 61 -5.9 21.4
10:40 1014 29.94 843 24.89 1.5 34.8 58 -5.8 21.6
10:45 1014 29.94 843 24.89 1.3 34.4 57 -6.2 20.8
10:50 1014 29.94 843 24.89 1.6 35 55 -6.3 20.6
10:55 1014 29.94 843 24.89 2 35.5 53 -6.6 20.1
11:00 1014 29.94 843 24.89 2.2 35.9 55 -6 21.2
11:05 1014 29.94 843 24.89 3.5 38.3 48 -6.5 20.4
11:10 1014 29.94 843 24.89 2.6 36.7 57 -5.1 22.7
11:15 1014 29.94 843 24.89 3.2 37.8 50 -6.3 20.6
11:20 1014 29.94 843 24.89 3.7 38.6 52 -5.2 22.6
11:25 1014 29.94 843 24.89 3.4 38.1 53 -5.3 22.5
11:30 1014 29.94 843 24.89 4 39.1 50 -5.6 21.9
11:35 1014 29.94 843 24.89 4.2 39.6 52 -4.7 23.5
11:40 1014 29.94 843 24.89 4.5 40 51 -4.7 23.5
11:45 1014 29.94 843 24.89 4.3 39.7 56 -3.8 25.2
11:50 1014 29.94 843 24.89 4.6 40.2 50 -4.9 23.2
11:55 1014 29.94 843 24.89 4.4 39.9 52 -4.7 23.6
12:00 1014 29.94 843 24.89 4.1 39.4 56 -3.8 25.1
12:05 1014 29.94 843 24.89 3.9 39 59 -3.4 25.9
12:10 1014 29.94 843 24.89 4 39.2 55 -4.2 24.4
12:15 1014 29.94 843 24.89 4.7 40.5 57 -3 26.6
12:20 1014 29.94 843 24.89 4.9 40.7 57 -3 26.7
12:25 1013 29.91 843 24.89 4.7 40.5 57 -3.1 26.3
12:30 1014 29.94 843 24.89 5.2 41.3 52 -3.9 25.1
12:35 1013 29.91 843 24.89 5.5 41.8 56 -2.7 27.1
12:40 1013 29.91 843 24.89 5.7 42.3 52 -3.3 26.1
12:45 1013 29.91 843 24.89 5.5 42 54 -3.1 26.5
12:50 1013 29.91 843 24.89 5.4 41.8 49 -4.4 24
12:55 1013 29.91 843 24.89 5.3 41.6 52 -3.7 25.4
13:00 1013 29.91 842 24.86 5.1 41.3 51 -4.2 24.5
13:05 1013 29.91 842 24.86 4.8 40.6 55 -3.5 25.6
13:10 1013 29.91 842 24.86 4.7 40.4 55 -3.6 25.5
13:15 1013 29.91 842 24.86 5.1 41.1 52 -3.9 24.9
13:20 1013 29.91 842 24.86 5.1 41.2 54 -3.5 25.7
13:25 1013 29.91 842 24.86 4.5 40.1 54 -4.1 24.6
13:30 1013 29.91 842 24.86 4.4 40 51 -4.9 23.3
13:35 1013 29.91 842 24.86 4.4 40 54 -4.1 24.7
13:40 1013 29.91 842 24.86 4.6 40.3 51 -4.7 23.6
13:45 1013 29.91 842 24.86 4.4 39.9 56 -3.6 25.4
13:50 1013 29.91 842 24.86 4.4 39.9 54 -4.1 24.6
13:55 1013 29.91 842 24.86 4.5 40.1 51 -4.7 23.6
14:00 1013 29.91 842 24.86 4.4 39.9 54 -4.1 24.6
14:05 1013 29.91 842 24.86 4.5 40 53 -4.3 24.2
14:10 1013 29.91 842 24.86 4.3 39.7 54 -4.3 24.2
14:15 1013 29.91 842 24.86 4.5 40 53 -4.3 24.2
14:20 1013 29.91 842 24.86 4.7 40.4 52 -4.3 24.2
14:25 1013 29.91 842 24.86 4.5 40.1 52 -4.5 23.9
14:30 1013 29.91 842 24.86 4.5 40.1 53 -4.2 24.4
14:35 1013 29.91 842 24.86 4.6 40.2 53 -4.2 24.4
14:40 1013 29.91 842 24.86 4.6 40.2 53 -4.2 24.5
14:45 1013 29.91 842 24.86 4.4 39.9 51 -4.9 23.1
14:50 1013 29.91 842 24.86 4.2 39.6 49 -5.5 22.1
14:55 1013 29.91 842 24.86 4.2 39.5 52 -4.8 23.4
15:00 1013 29.91 842 24.86 4.4 39.9 51 -4.8 23.4
15:05 1013 29.91 842 24.86 4.4 39.9 50 -5 22.9
15:10 1013 29.91 842 24.86 4.5 40.1 51 -4.6 23.7
15:15 1013 29.91 842 24.86 4.7 40.4 50 -5 23.1
15:20 1013 29.91 842 24.86 4.7 40.4 50 -4.8 23.4
15:25 1013 29.91 842 24.86 4.7 40.4 47 -5.8 21.6
15:30 1013 29.91 842 24.86 4.1 39.3 50 -5.4 22.2
15:35 1013 29.91 842 24.86 3.9 39 53 -4.7 23.5
15:40 1013 29.91 842 24.86 3.9 39.1 55 -4.3 24.3
15:45 1013 29.91 842 24.86 3.7 38.6 56 -4.3 24.3
15:50 1013 29.91 842 24.86 3.7 38.7 56 -4.2 24.4
15:55 1012 29.88 842 24.86 4 39.1 55 -4.3 24.3
16:00 1012 29.88 842 24.86 4.1 39.4 53 -4.6 23.8
16:05 1012 29.88 842 24.86 4.1 39.4 53 -4.6 23.7
16:10 1012 29.88 842 24.86 4.2 39.5 53 -4.5 23.8
16:15 1012 29.88 842 24.86 4.6 40.2 51 -4.8 23.4
16:20 1012 29.88 841 24.83 4.9 40.8 51 -4.3 24.2
16:25 1012 29.88 841 24.83 5 40.9 51 -4.4 24.1
16:30 1012 29.88 841 24.83 4.9 40.9 51 -4.4 24.1
16:35 1012 29.88 841 24.83 4.8 40.7 51 -4.4 24.1
16:40 1012 29.88 841 24.83 4.7 40.5 53 -4 24.9
16:45 1012 29.88 841 24.83 3.8 38.8 59 -3.5 25.8
16:50 1012 29.88 841 24.83 2.9 37.3 61 -3.8 25.1
16:55 1012 29.88 841 24.83 2.7 36.9 62 -3.9 25.1
17:00 1012 29.88 841 24.83 2.8 37 61 -4 24.8
17:05 1012 29.88 841 24.83 2.9 37.3 60 -4.1 24.6
17:10 1012 29.88 841 24.83 3.2 37.8 59 -4 24.8
17:15 1012 29.88 841 24.83 3 37.3 60 -4 24.7
17:20 1012 29.88 841 24.83 2.9 37.2 59 -4.3 24.2
17:25 1012 29.88 841 24.83 2.9 37.3 58 -4.4 24
17:30 1012 29.88 841 24.83 2.9 37.2 59 -4.3 24.3
17:35 1012 29.88 841 24.83 3.2 37.8 57 -4.4 24.2
17:40 1012 29.88 841 24.83 3.3 37.9 58 -4.2 24.4
17:45 1012 29.88 842 24.86 3.6 38.4 57 -4.2 24.4
17:50 1012 29.88 842 24.86 3.4 38.2 58 -4.2 24.5
17:55 1012 29.88 842 24.86 3.3 37.9 58 -4.3 24.3
18:00 1013 29.91 842 24.86 3.3 38 57 -4.5 24
18:05 1013 29.91 842 24.86 3.3 38 62 -3.2 26.3
18:10 1013 29.91 842 24.86 2.2 36 70 -2.7 27.2
18:15 1013 29.91 842 24.86 2 35.6 71 -2.7 27.1
18:20 1013 29.91 842 24.86 2.2 35.9 70 -2.8 26.9
18:25 1013 29.91 842 24.86 2 35.5 72 -2.6 27.4
18:30 1013 29.91 842 24.86 1.6 34.8 73 -2.7 27.2
18:35 1013 29.91 842 24.86 1.7 35 70 -3.2 26.3
18:40 1013 29.91 842 24.86 1.8 35.2 73 -2.6 27.3
18:45 1013 29.91 842 24.86 1.5 34.7 73 -2.8 26.9
18:50 1013 29.91 842 24.86 1.4 34.5 74 -2.8 27
18:55 1013 29.91 842 24.86 1.3 34.4 74 -2.8 27
19:00 1013 29.91 842 24.86 1.4 34.4 74 -2.8 26.9
19:05 1013 29.91 842 24.86 1.4 34.4 73 -2.9 26.8
19:10 1013 29.91 842 24.86 1.2 34.1 75 -2.8 27
19:15 1013 29.91 842 24.86 0.8 33.4 78 -2.7 27.1
19:20 1013 29.91 842 24.86 0.6 33.1 78 -2.8 26.9
19:25 1013 29.91 842 24.86 0.6 33 79 -2.8 27
19:30 1013 29.91 842 24.86 0.5 32.8 79 -2.8 27
19:35 1013 29.91 842 24.86 0.5 32.9 79 -2.8 27
19:40 1013 29.91 842 24.86 0.5 33 78 -2.9 26.8
19:45 1013 29.91 842 24.86 0.6 33.1 77 -3 26.6
19:50 1013 29.91 842 24.86 0.7 33.2 77 -2.8 26.9
19:55 1013 29.91 842 24.86 0.5 32.9 79 -2.7 27.1
20:00 1013 29.91 842 24.86 0.3 32.5 80 -2.7 27.1
20:05 1013 29.91 842 24.86 0.2 32.3 81 -2.8 27
20:10 1013 29.91 842 24.86 0.2 32.3 80 -2.8 26.9
20:15 1013 29.91 842 24.86 0.2 32.3 80 -2.9 26.8
20:20 1013 29.91 842 24.86 0.2 32.3 80 -2.9 26.8
20:25 1013 29.91 842 24.86 0.1 32.3 81 -2.8 26.9
20:30 1012 29.88 842 24.86 0.1 32.2 80 -2.9 26.8
20:35 1012 29.88 842 24.86 0.1 32.3 80 -2.9 26.7
20:40 1013 29.91 842 24.86 0.1 32.2 79 -3 26.6
20:45 1013 29.91 842 24.86 0.2 32.4 79 -3 26.5
20:50 1013 29.91 842 24.86 0.2 32.4 78 -3.1 26.4
20:55 1013 29.91 842 24.86 0.3 32.6 78 -3.1 26.4
21:00 1013 29.91 842 24.86 0.3 32.6 78 -3.1 26.5
21:05 1012 29.88 842 24.86 0.2 32.4 78 -3.1 26.4
21:10 1012 29.88 842 24.86 0.3 32.5 77 -3.2 26.3
21:15 1012 29.88 842 24.86 0.3 32.6 78 -3 26.6
21:20 1012 29.88 842 24.86 0.2 32.3 79 -3 26.5
21:25 1012 29.88 842 24.86 0.2 32.4 78 -3.1 26.4
21:30 1012 29.88 842 24.86 0.3 32.5 78 -3.2 26.3
21:35 1012 29.88 842 24.86 0.6 33.1 76 -3.1 26.3
21:40 1012 29.88 841 24.83 0.5 32.8 78 -3 26.6
21:45 1012 29.88 841 24.83 0.2 32.4 78 -3.2 26.2
21:50 1012 29.88 841 24.83 0.3 32.5 77 -3.3 26.1
21:55 1012 29.88 841 24.83 0.5 32.9 75 -3.4 26
22:00 1012 29.88 841 24.83 0.7 33.2 76 -3.1 26.3
22:05 1012 29.88 841 24.83 0.7 33.2 75 -3.2 26.2
22:10 1012 29.88 841 24.83 0.5 33 75 -3.3 26
22:15 1012 29.88 841 24.83 0.3 32.6 77 -3.3 26.1
22:20 1012 29.88 841 24.83 0.2 32.4 77 -3.4 26
22:25 1012 29.88 841 24.83 0.2 32.4 77 -3.3 26.1
22:30 1012 29.88 841 24.83 0.1 32.3 78 -3.2 26.2
22:35 1012 29.88 841 24.83 0.1 32.2 78 -3.2 26.2
22:40 1012 29.88 841 24.83 0.1 32.1 78 -3.4 26
22:45 1012 29.88 841 24.83 0.2 32.3 77 -3.4 25.9
22:50 1012 29.88 841 24.83 0.2 32.4 76 -3.5 25.7
22:55 1012 29.88 841 24.83 0.3 32.5 76 -3.4 25.9
23:00 1012 29.88 841 24.83 0.2 32.4 77 -3.4 25.9
23:05 1012 29.88 841 24.83 0.1 32.2 78 -3.2 26.2
23:10 1012 29.88 841 24.83 -0 32 78 -3.3 26
23:15 1012 29.88 841 24.83 0 32 78 -3.3 26.1
23:20 1012 29.88 841 24.83 0 32.1 78 -3.3 26
23:25 1012 29.88 841 24.83 0.1 32.2 77 -3.4 25.8
23:30 1012 29.88 841 24.83 0.2 32.4 77 -3.4 25.9
23:35 1012 29.88 841 24.83 0.2 32.4 77 -3.4 26
23:40 1012 29.88 841 24.83 0.2 32.4 77 -3.3 26
23:45 1012 29.88 841 24.83 0.2 32.4 78 -3.3 26.1
23:50 1012 29.88 841 24.83 0.3 32.6 76 -3.4 25.9
23:55 1012 29.88 841 24.83 0.7 33.2 71 -4 24.8
24:00 1012 29.88 841 24.83 1.3 34.4 68 -3.9 25